createdAt,value
2019-03-05T00:00:30.827Z,64.76
2019-03-05T00:03:01.663Z,64.28
2019-03-05T00:05:32.408Z,64.08
2019-03-05T00:08:02.904Z,63.99
2019-03-05T00:10:33.838Z,63.93
2019-03-05T00:13:04.507Z,64.61
2019-03-05T00:15:35.238Z,64.22
2019-03-05T00:18:05.991Z,64.29
2019-03-05T00:20:36.813Z,64.40
2019-03-05T00:23:08.441Z,64.44
2019-03-05T00:25:39.823Z,64.24
2019-03-05T00:28:24.904Z,64.63
2019-03-05T00:31:07.695Z,64.03
2019-03-05T00:33:44.169Z,64.52
2019-03-05T00:36:23.723Z,64.48
2019-03-05T00:39:09.209Z,64.43
2019-03-05T00:42:02.362Z,64.33
2019-03-05T00:44:52.660Z,64.54
2019-03-05T00:47:26.446Z,64.50
2019-03-05T00:50:29.129Z,64.38
2019-03-05T00:53:24.062Z,64.31
2019-03-05T00:56:00.727Z,64.55
2019-03-05T00:58:37.170Z,64.34
2019-03-05T01:01:22.384Z,64.31
2019-03-05T01:04:14.075Z,64.04
2019-03-05T01:06:44.802Z,63.96
2019-03-05T01:09:17.328Z,64.20
2019-03-05T01:11:48.733Z,64.11
2019-03-05T01:14:19.475Z,63.88
2019-03-05T01:16:50.312Z,64.14
2019-03-05T01:19:21.050Z,63.79
2019-03-05T01:21:51.892Z,63.79
2019-03-05T01:24:22.717Z,63.64
2019-03-05T01:26:53.451Z,63.13
2019-03-05T01:29:24.191Z,63.27
2019-03-05T01:32:02.392Z,63.65
2019-03-05T01:34:38.268Z,63.57
2019-03-05T01:37:09.604Z,63.49
2019-03-05T01:39:47.504Z,64.30
2019-03-05T01:42:18.233Z,63.96
2019-03-05T01:44:48.965Z,64.13
2019-03-05T01:47:19.706Z,63.97
2019-03-05T01:49:50.444Z,64.17
2019-03-05T01:52:20.910Z,64.50
2019-03-05T01:54:51.307Z,64.27
2019-03-05T01:57:22.096Z,65.02
2019-03-05T01:59:52.870Z,64.86
2019-03-05T02:02:23.610Z,64.66
2019-03-05T02:04:54.446Z,64.61
2019-03-05T02:07:25.284Z,64.64
2019-03-05T02:09:56.413Z,65.15
2019-03-05T02:12:26.789Z,65.06
2019-03-05T02:14:57.584Z,65.18
2019-03-05T02:17:28.324Z,65.09
2019-03-05T02:19:58.689Z,65.12
2019-03-05T02:22:32.230Z,64.57
2019-03-05T02:25:08.759Z,64.81
2019-03-05T02:27:48.443Z,64.64
2019-03-05T02:30:30.300Z,64.84
2019-03-05T02:33:20.622Z,64.89
2019-03-05T02:36:00.154Z,65.11
2019-03-05T02:38:33.972Z,64.76
2019-03-05T02:41:10.368Z,64.95
2019-03-05T02:44:02.195Z,64.99
2019-03-05T02:46:50.941Z,64.70
2019-03-05T02:49:41.229Z,65.22
2019-03-05T02:52:29.735Z,64.73
2019-03-05T02:55:05.759Z,65.21
2019-03-05T02:57:35.516Z,65.68
2019-03-05T03:00:11.309Z,65.58
2019-03-05T03:02:43.795Z,65.20
2019-03-05T03:05:20.971Z,65.71
2019-03-05T03:07:51.805Z,65.92
2019-03-05T03:10:23.227Z,66.10
2019-03-05T03:12:53.624Z,66.14
2019-03-05T03:15:24.422Z,65.83
2019-03-05T03:17:55.461Z,65.89
2019-03-05T03:20:26.293Z,66.04
2019-03-05T03:22:56.724Z,66.29
2019-03-05T03:25:27.562Z,66.94
2019-03-05T03:27:57.931Z,66.91
2019-03-05T03:30:29.174Z,66.92
2019-03-05T03:32:59.867Z,66.61
2019-03-05T03:35:30.687Z,66.98
2019-03-05T03:38:01.421Z,66.68
2019-03-05T03:40:32.166Z,66.63
2019-03-05T03:43:03.021Z,66.68
2019-03-05T03:45:33.854Z,67.02
2019-03-05T03:48:04.698Z,66.75
2019-03-05T03:50:35.518Z,66.96
2019-03-05T03:53:06.030Z,66.95
2019-03-05T03:55:36.893Z,66.84
2019-03-05T03:58:07.730Z,67.05
2019-03-05T04:00:38.624Z,67.25
2019-03-05T04:03:09.399Z,67.07
2019-03-05T04:05:40.133Z,67.65
2019-03-05T04:08:10.862Z,67.28
2019-03-05T04:10:41.722Z,67.47
2019-03-05T04:13:12.554Z,67.43
2019-03-05T04:15:43.368Z,67.67
2019-03-05T04:18:14.202Z,67.56
2019-03-05T04:20:46.603Z,67.80
2019-03-05T04:23:20.294Z,68.21
2019-03-05T04:25:51.048Z,68.39
2019-03-05T04:28:21.489Z,68.88
2019-03-05T04:30:52.407Z,68.91
2019-03-05T04:33:22.958Z,69.33
2019-03-05T04:35:53.766Z,69.68
2019-03-05T04:38:24.495Z,70.26
2019-03-05T04:40:55.369Z,71.00
2019-03-05T04:43:26.066Z,70.74
2019-03-05T04:45:58.533Z,70.79
2019-03-05T04:48:29.361Z,71.01
2019-03-05T04:51:07.685Z,71.33
2019-03-05T04:53:38.564Z,71.85
2019-03-05T04:56:09.457Z,71.68
2019-03-05T04:58:40.205Z,71.67
2019-03-05T05:01:10.631Z,71.89
2019-03-05T05:03:41.065Z,71.78
2019-03-05T05:06:11.874Z,71.89
2019-03-05T05:08:42.600Z,71.86
2019-03-05T05:11:13.497Z,71.88
2019-03-05T05:13:44.287Z,71.81
2019-03-05T05:16:15.006Z,71.71
2019-03-05T05:18:45.853Z,72.09
2019-03-05T05:21:16.730Z,72.03
2019-03-05T05:23:47.529Z,71.86
2019-03-05T05:26:18.365Z,72.21
2019-03-05T05:28:48.802Z,72.18
2019-03-05T05:31:19.626Z,71.88
2019-03-05T05:33:50.359Z,72.04
2019-03-05T05:36:21.197Z,71.83
2019-03-05T05:38:51.939Z,72.61
2019-03-05T05:41:22.668Z,72.72
2019-03-05T05:43:53.405Z,72.30
2019-03-05T05:46:24.140Z,72.24
2019-03-05T05:48:54.873Z,72.62
2019-03-05T05:51:25.233Z,72.61
2019-03-05T05:53:55.942Z,72.26
2019-03-05T05:56:26.775Z,72.33
2019-03-05T05:58:57.660Z,72.13
2019-03-05T06:01:28.440Z,72.16
2019-03-05T06:03:59.164Z,72.17
2019-03-05T06:06:29.972Z,71.93
2019-03-05T06:09:00.743Z,71.98
2019-03-05T06:11:31.578Z,71.89
2019-03-05T06:14:02.502Z,72.29
2019-03-05T06:16:33.451Z,72.29
2019-03-05T06:19:04.219Z,72.49
2019-03-05T06:21:35.026Z,71.89
2019-03-05T06:24:05.864Z,72.28
2019-03-05T06:26:36.588Z,72.25
2019-03-05T06:29:07.348Z,71.31
2019-03-05T06:31:37.755Z,71.63
2019-03-05T06:34:08.493Z,71.71
2019-03-05T06:36:54.017Z,71.83
2019-03-05T06:39:25.027Z,71.81
2019-03-05T06:41:55.964Z,71.68
2019-03-05T06:44:27.077Z,71.17
2019-03-05T06:46:57.830Z,71.26
2019-03-05T06:49:28.586Z,70.86
2019-03-05T06:51:59.420Z,70.71
2019-03-05T06:54:30.150Z,70.38
2019-03-05T06:57:01.208Z,70.76
2019-03-05T06:59:32.124Z,70.18
2019-03-05T07:02:02.868Z,70.09
2019-03-05T07:04:33.692Z,70.52
2019-03-05T07:07:04.439Z,70.27
2019-03-05T07:09:38.538Z,70.53
2019-03-05T07:12:12.342Z,70.41
2019-03-05T07:15:02.579Z,70.12
2019-03-05T07:17:48.256Z,70.23
2019-03-05T07:20:30.805Z,69.40
2019-03-05T07:23:13.473Z,69.41
2019-03-05T07:25:44.294Z,69.21
2019-03-05T07:28:15.220Z,69.65
2019-03-05T07:30:46.102Z,69.05
2019-03-05T07:33:16.883Z,68.79
2019-03-05T07:35:47.770Z,68.40
2019-03-05T07:38:18.580Z,68.64
2019-03-05T07:40:49.319Z,67.93
2019-03-05T07:43:19.751Z,68.02
2019-03-05T07:45:50.469Z,68.12
2019-03-05T07:48:21.228Z,68.01
2019-03-05T07:50:52.129Z,67.65
2019-03-05T07:53:22.973Z,67.43
2019-03-05T07:55:53.698Z,67.45
2019-03-05T07:58:24.242Z,67.43
2019-03-05T08:00:54.655Z,66.46
2019-03-05T08:03:25.391Z,66.41
2019-03-05T08:05:56.140Z,66.06
2019-03-05T08:09:04.132Z,65.81
2019-03-05T08:11:34.976Z,65.86
2019-03-05T08:14:31.101Z,66.24
2019-03-05T08:17:01.879Z,66.34
2019-03-05T08:19:32.574Z,65.78
2019-03-05T08:22:04.544Z,65.30
2019-03-05T08:24:35.417Z,65.63
2019-03-05T08:27:05.865Z,65.56
2019-03-05T08:29:36.673Z,65.11
2019-03-05T08:32:07.376Z,65.10
2019-03-05T08:34:38.107Z,65.14
2019-03-05T08:37:08.983Z,65.32
2019-03-05T08:39:39.893Z,65.17
2019-03-05T08:42:10.625Z,65.21
2019-03-05T08:44:49.976Z,65.56
2019-03-05T08:47:14.032Z,65.36
2019-03-05T08:49:44.761Z,64.90
2019-03-05T08:52:15.608Z,65.29
2019-03-05T08:54:46.344Z,65.17
2019-03-05T08:57:17.080Z,64.62
2019-03-05T08:59:47.802Z,64.65
2019-03-05T09:02:18.666Z,64.11
2019-03-05T09:04:49.358Z,64.28
2019-03-05T09:07:20.104Z,64.22
2019-03-05T09:09:50.938Z,63.04
2019-03-05T09:12:21.688Z,63.00
2019-03-05T09:14:52.415Z,62.97
2019-03-05T09:17:23.156Z,63.40
2019-03-05T09:19:53.900Z,63.29
2019-03-05T09:22:24.747Z,63.48
2019-03-05T09:24:55.295Z,62.64
2019-03-05T09:27:26.085Z,63.10
2019-03-05T09:29:56.819Z,63.48
2019-03-05T09:32:27.761Z,63.82
2019-03-05T09:34:58.613Z,64.41
2019-03-05T09:37:29.065Z,65.44
2019-03-05T09:39:59.528Z,67.73
2019-03-05T09:42:39.629Z,69.09
2019-03-05T09:45:02.767Z,67.64
2019-03-05T09:47:33.594Z,66.83
2019-03-05T09:50:06.869Z,66.10
2019-03-05T09:52:37.627Z,67.86
2019-03-05T09:55:11.885Z,71.37
2019-03-05T09:57:42.475Z,70.91
2019-03-05T10:00:18.843Z,71.06
2019-03-05T10:02:49.777Z,71.01
2019-03-05T10:05:21.328Z,70.40
2019-03-05T10:07:52.305Z,69.75
2019-03-05T10:10:27.929Z,69.51
2019-03-05T10:13:03.733Z,69.11
2019-03-05T10:15:31.538Z,67.55
2019-03-05T10:18:12.245Z,66.34
2019-03-05T10:20:37.625Z,66.99
2019-03-05T10:23:08.384Z,65.44
2019-03-05T10:25:39.203Z,65.11
2019-03-05T10:28:09.937Z,65.14
2019-03-05T10:30:43.021Z,64.21
2019-03-05T10:33:16.378Z,64.57
2019-03-05T10:35:47.160Z,64.32
2019-03-05T10:38:17.902Z,63.46
2019-03-05T10:40:51.688Z,62.98
2019-03-05T10:43:22.449Z,61.36
2019-03-05T10:45:53.262Z,60.52
2019-03-05T10:48:26.651Z,60.39
2019-03-05T10:50:58.931Z,59.47
2019-03-05T10:53:30.064Z,59.40
2019-03-05T10:56:00.489Z,58.53
2019-03-05T10:58:34.228Z,58.90
2019-03-05T11:01:06.737Z,59.19
2019-03-05T11:03:37.691Z,58.79
2019-03-05T11:06:08.207Z,58.62
2019-03-05T11:08:39.136Z,58.85
2019-03-05T11:11:13.870Z,58.48
2019-03-05T11:13:42.512Z,58.68
2019-03-05T11:16:13.322Z,58.55
2019-03-05T11:18:44.074Z,58.90
2019-03-05T11:21:14.797Z,58.87
2019-03-05T11:23:45.657Z,58.84
2019-03-05T11:26:16.384Z,58.80
2019-03-05T11:28:47.202Z,58.60
2019-03-05T11:31:18.039Z,58.54
2019-03-05T11:33:48.796Z,57.20
2019-03-05T11:36:19.732Z,57.37
2019-03-05T11:38:50.575Z,57.55
2019-03-05T11:41:21.302Z,57.75
2019-03-05T11:43:52.078Z,57.77
2019-03-05T11:46:29.110Z,58.42
2019-03-05T11:48:59.961Z,57.90
2019-03-05T11:51:30.787Z,57.56
2019-03-05T11:54:01.256Z,56.83
2019-03-05T11:56:31.655Z,57.26
2019-03-05T11:59:02.561Z,57.37
2019-03-05T12:01:33.540Z,58.18
2019-03-05T12:04:04.363Z,62.10
2019-03-05T12:06:35.187Z,62.56
2019-03-05T12:09:07.382Z,62.51
2019-03-05T12:11:38.101Z,60.64
2019-03-05T12:14:08.957Z,60.60
2019-03-05T12:16:41.605Z,59.08
2019-03-05T12:19:12.250Z,59.20
2019-03-05T12:21:42.969Z,59.49
2019-03-05T12:24:13.736Z,57.83
2019-03-05T12:26:44.570Z,57.28
2019-03-05T12:29:15.492Z,56.59
2019-03-05T12:31:46.364Z,57.11
2019-03-05T12:34:17.166Z,57.97
2019-03-05T12:36:47.898Z,58.38
2019-03-05T12:39:20.484Z,57.91
2019-03-05T12:41:51.314Z,57.54
2019-03-05T12:44:22.048Z,57.18
2019-03-05T12:46:52.851Z,57.35
2019-03-05T12:49:23.529Z,57.40
2019-03-05T12:51:54.562Z,57.74
2019-03-05T12:54:25.403Z,57.02
2019-03-05T12:56:56.330Z,57.17
2019-03-05T12:59:26.771Z,56.98
2019-03-05T13:01:57.749Z,57.87
2019-03-05T13:04:28.228Z,58.29
2019-03-05T13:06:58.990Z,70.59
2019-03-05T13:09:29.900Z,78.90
2019-03-05T13:12:00.840Z,80.53
2019-03-05T13:14:33.254Z,80.91
2019-03-05T13:17:04.152Z,82.88
2019-03-05T13:19:34.986Z,83.17
2019-03-05T13:22:05.831Z,81.32
2019-03-05T13:24:36.658Z,81.87
2019-03-05T13:27:07.132Z,80.23
2019-03-05T13:29:40.786Z,79.26
2019-03-05T13:32:11.305Z,79.36
2019-03-05T13:34:43.081Z,78.01
2019-03-05T13:37:14.298Z,76.76
2019-03-05T13:39:47.662Z,75.47
2019-03-05T13:42:18.591Z,76.21
2019-03-05T13:44:52.363Z,75.13
2019-03-05T13:47:23.201Z,75.43
2019-03-05T13:49:59.835Z,74.94
2019-03-05T13:52:35.977Z,76.28
2019-03-05T13:55:23.498Z,76.01
2019-03-05T13:58:12.042Z,75.84
2019-03-05T14:00:43.680Z,70.42
2019-03-05T14:03:19.949Z,69.29
2019-03-05T14:06:22.694Z,68.69
2019-03-05T14:09:02.416Z,69.04
2019-03-05T14:11:32.957Z,68.78
2019-03-05T14:14:03.892Z,67.31
2019-03-05T14:16:34.709Z,67.44
2019-03-05T14:19:05.621Z,67.70
2019-03-05T14:21:37.598Z,68.57
2019-03-05T14:24:08.414Z,68.69
2019-03-05T14:26:39.250Z,66.89
2019-03-05T14:29:10.094Z,67.87
2019-03-05T14:31:41.112Z,66.96
2019-03-05T14:34:11.871Z,67.27
2019-03-05T14:36:42.688Z,66.57
2019-03-05T14:39:29.382Z,65.69
2019-03-05T14:42:00.672Z,66.30
2019-03-05T14:44:39.776Z,66.32
2019-03-05T14:47:05.993Z,65.60
2019-03-05T14:49:36.871Z,64.54
2019-03-05T14:52:10.299Z,65.60
2019-03-05T14:54:41.479Z,66.00
2019-03-05T14:57:11.897Z,65.47
2019-03-05T14:59:42.763Z,65.35
2019-03-05T15:02:13.677Z,64.66
2019-03-05T15:04:44.443Z,63.83
2019-03-05T15:07:26.656Z,63.70
2019-03-05T15:09:57.564Z,65.11
2019-03-05T15:12:30.371Z,64.77
2019-03-05T15:15:01.311Z,65.03
2019-03-05T15:17:32.140Z,64.84
2019-03-05T15:20:05.837Z,64.58
2019-03-05T15:22:36.626Z,64.74
2019-03-05T15:25:10.445Z,64.52
2019-03-05T15:27:41.236Z,64.52
2019-03-05T15:30:19.595Z,64.38
2019-03-05T15:32:50.589Z,64.15
2019-03-05T15:35:21.406Z,64.57
2019-03-05T15:37:56.172Z,64.83
2019-03-05T15:40:26.980Z,64.40
2019-03-05T15:42:57.736Z,64.31
2019-03-05T15:45:28.663Z,64.65
2019-03-05T15:48:00.930Z,65.24
2019-03-05T15:50:31.844Z,65.82
2019-03-05T15:53:02.634Z,66.69
2019-03-05T15:55:33.526Z,67.67
2019-03-05T15:58:05.486Z,71.90
2019-03-05T16:00:36.329Z,69.63
2019-03-05T16:03:06.798Z,68.37
2019-03-05T16:05:37.677Z,67.24
2019-03-05T16:08:08.435Z,68.21
2019-03-05T16:10:39.248Z,68.95
2019-03-05T16:13:10.087Z,69.34
2019-03-05T16:15:41.809Z,69.21
2019-03-05T16:18:13.400Z,69.43
2019-03-05T16:20:44.219Z,70.42
2019-03-05T16:23:15.065Z,75.46
2019-03-05T16:25:50.260Z,80.18
2019-03-05T16:28:18.988Z,82.66
2019-03-05T16:31:11.306Z,84.32
2019-03-05T16:33:42.203Z,85.06
2019-03-05T16:36:29.147Z,86.06
2019-03-05T16:39:20.092Z,86.08
2019-03-05T16:42:05.276Z,86.57
2019-03-05T16:44:37.954Z,86.53
2019-03-05T16:47:13.383Z,85.94
2019-03-05T16:49:56.550Z,85.71
2019-03-05T16:52:47.516Z,85.75
2019-03-05T16:55:27.479Z,85.47
2019-03-05T16:58:14.923Z,85.02
2019-03-05T17:00:56.723Z,84.58
2019-03-05T17:03:38.178Z,85.41
2019-03-05T17:06:19.189Z,84.88
2019-03-05T17:08:54.291Z,84.12
2019-03-05T17:11:26.667Z,84.51
2019-03-05T17:13:57.431Z,83.52
2019-03-05T17:16:28.485Z,84.00
2019-03-05T17:18:58.993Z,84.03
2019-03-05T17:21:29.498Z,83.26
2019-03-05T17:24:01.662Z,83.76
2019-03-05T17:26:32.934Z,83.62
2019-03-05T17:29:03.769Z,83.77
2019-03-05T17:31:34.750Z,83.33
2019-03-05T17:34:05.630Z,83.50
2019-03-05T17:36:36.111Z,83.30
2019-03-05T17:39:09.961Z,83.59
2019-03-05T17:41:40.687Z,83.08
2019-03-05T17:44:11.672Z,83.00
2019-03-05T17:46:45.733Z,82.51
2019-03-05T17:49:16.834Z,82.66
2019-03-05T17:51:47.291Z,83.79
2019-03-05T17:54:18.081Z,82.29
2019-03-05T17:56:48.890Z,83.19
2019-03-05T17:59:19.721Z,82.50
2019-03-05T18:01:50.473Z,82.64
2019-03-05T18:04:21.399Z,82.44
2019-03-05T18:06:52.135Z,81.99
2019-03-05T18:09:22.927Z,82.37
2019-03-05T18:11:53.822Z,82.22
2019-03-05T18:14:24.671Z,82.50
2019-03-05T18:16:55.581Z,82.42
2019-03-05T18:19:26.758Z,82.15
2019-03-05T18:21:57.599Z,82.25
2019-03-05T18:24:28.325Z,81.88
2019-03-05T18:26:59.248Z,82.26
2019-03-05T18:29:30.104Z,82.14
2019-03-05T18:32:02.296Z,83.91
2019-03-05T18:34:32.842Z,81.73
2019-03-05T18:37:03.629Z,80.91
2019-03-05T18:39:34.346Z,80.96
2019-03-05T18:42:04.809Z,80.96
2019-03-05T18:44:35.553Z,81.03
2019-03-05T18:47:06.237Z,81.06
2019-03-05T18:49:36.634Z,80.96
2019-03-05T18:52:07.721Z,81.18
2019-03-05T18:54:41.160Z,81.28
2019-03-05T18:57:11.952Z,81.41
2019-03-05T18:59:42.836Z,81.32
2019-03-05T19:02:13.241Z,80.96
2019-03-05T19:04:43.762Z,81.13
2019-03-05T19:07:14.496Z,81.19
2019-03-05T19:09:45.407Z,80.85
2019-03-05T19:12:16.300Z,81.14
2019-03-05T19:14:47.248Z,81.05
2019-03-05T19:17:17.738Z,81.17
2019-03-05T19:19:48.487Z,80.88
2019-03-05T19:22:18.864Z,80.84
2019-03-05T19:24:50.044Z,81.05
2019-03-05T19:27:26.386Z,81.10
2019-03-05T19:29:58.980Z,80.98
2019-03-05T19:32:34.650Z,80.98
2019-03-05T19:35:07.739Z,80.94
2019-03-05T19:37:38.665Z,81.07
2019-03-05T19:40:12.572Z,81.47
2019-03-05T19:42:43.417Z,81.09
2019-03-05T19:45:16.791Z,81.16
2019-03-05T19:47:47.855Z,81.13
2019-03-05T19:50:23.248Z,81.15
2019-03-05T19:52:54.271Z,81.50
2019-03-05T19:55:27.361Z,81.41
2019-03-05T19:58:12.583Z,80.97
2019-03-05T20:01:01.441Z,80.91
2019-03-05T20:03:33.308Z,81.16
2019-03-05T20:06:04.674Z,81.35
2019-03-05T20:08:39.903Z,81.33
2019-03-05T20:11:08.327Z,81.12
2019-03-05T20:13:39.223Z,80.88
2019-03-05T20:16:10.096Z,81.19
2019-03-05T20:18:41.017Z,80.92
2019-03-05T20:21:11.870Z,80.81
2019-03-05T20:23:42.770Z,80.67
2019-03-05T20:26:14.454Z,80.93
2019-03-05T20:28:46.939Z,80.65
2019-03-05T20:31:21.531Z,80.86
2019-03-05T20:33:52.681Z,80.48
2019-03-05T20:36:23.715Z,80.04
2019-03-05T20:38:54.257Z,79.88
2019-03-05T20:41:25.184Z,80.12
2019-03-05T20:43:56.290Z,80.14
2019-03-05T20:46:31.056Z,80.08
2019-03-05T20:49:04.071Z,80.29
2019-03-05T20:51:46.709Z,80.63
2019-03-05T20:54:17.089Z,80.36
2019-03-05T20:56:48.111Z,80.63
2019-03-05T20:59:20.946Z,80.45
2019-03-05T21:01:52.130Z,79.87
2019-03-05T21:04:23.993Z,80.05
2019-03-05T21:06:55.141Z,79.99
2019-03-05T21:09:28.773Z,79.67
2019-03-05T21:12:01.816Z,79.75
2019-03-05T21:14:32.866Z,79.52
2019-03-05T21:17:03.855Z,79.35
2019-03-05T21:19:34.520Z,79.46
2019-03-05T21:22:07.017Z,79.25
2019-03-05T21:24:37.974Z,79.48
2019-03-05T21:27:11.231Z,79.13
2019-03-05T21:29:42.128Z,78.83
2019-03-05T21:32:12.978Z,78.92
2019-03-05T21:34:43.774Z,78.83
2019-03-05T21:37:14.509Z,78.94
2019-03-05T21:39:45.252Z,78.99
2019-03-05T21:42:16.105Z,78.76
2019-03-05T21:44:47.010Z,78.61
2019-03-05T21:47:17.884Z,79.08
2019-03-05T21:49:48.602Z,79.15
2019-03-05T21:52:19.456Z,79.36
2019-03-05T21:54:50.558Z,79.44
2019-03-05T21:57:21.283Z,79.21
2019-03-05T21:59:51.686Z,79.56
2019-03-05T22:02:23.035Z,78.98
2019-03-05T22:04:53.972Z,79.00
2019-03-05T22:07:24.761Z,79.27
2019-03-05T22:09:55.685Z,79.33
2019-03-05T22:12:26.635Z,79.16
2019-03-05T22:14:57.183Z,79.46
2019-03-05T22:17:28.161Z,79.66
2019-03-05T22:19:58.939Z,79.59
2019-03-05T22:22:29.773Z,79.53
2019-03-05T22:25:00.705Z,79.66
2019-03-05T22:27:31.969Z,79.57
2019-03-05T22:30:02.798Z,79.66
2019-03-05T22:32:33.659Z,79.63
2019-03-05T22:35:04.777Z,79.66
2019-03-05T22:37:35.744Z,79.47
2019-03-05T22:40:12.255Z,78.98
2019-03-05T22:42:43.119Z,79.30
2019-03-05T22:45:28.523Z,79.26
2019-03-05T22:47:59.339Z,79.13
2019-03-05T22:50:30.157Z,79.04
2019-03-05T22:53:00.628Z,79.18
2019-03-05T22:55:31.734Z,79.02
2019-03-05T22:58:02.469Z,78.55
2019-03-05T23:00:43.788Z,78.77
2019-03-05T23:03:23.051Z,78.68
2019-03-05T23:05:54.128Z,78.70
2019-03-05T23:08:24.871Z,78.23
2019-03-05T23:10:55.508Z,77.98
2019-03-05T23:13:27.054Z,77.70
2019-03-05T23:15:57.586Z,77.70
2019-03-05T23:18:28.309Z,77.63
2019-03-05T23:20:58.736Z,77.31
2019-03-05T23:23:29.471Z,77.11
2019-03-05T23:26:00.234Z,77.09
2019-03-05T23:28:31.042Z,77.39
2019-03-05T23:31:01.870Z,77.32
2019-03-05T23:33:32.637Z,77.18
2019-03-05T23:36:03.445Z,77.27
2019-03-05T23:38:34.599Z,77.23
2019-03-05T23:41:05.339Z,77.23
2019-03-05T23:43:36.214Z,77.28
2019-03-05T23:46:07.020Z,76.97
2019-03-05T23:48:37.540Z,76.90
2019-03-05T23:51:08.574Z,76.99
2019-03-05T23:53:39.324Z,77.04
2019-03-05T23:56:10.294Z,77.19
2019-03-05T23:58:40.814Z,77.23
